^^

Meteo Aereoporti Centro-Italia

 

 
LIRZ - Perugia S.Egidio (208 m.)
Dati ricevuti: 02/10/2022 07:50
Coperto
Coperto
 Vento da W
Vento: W 4 km/h
TEMPERATURA: 15°C
P.to di Rugiada: 13°C
Umidità: 88%
Pressione: 1022 hPa
Nuvole: Coperto
Visibilità: 10 km
Dettagli Nuvole: Coperto 975 m
2022/10/02 05:50 LIRZ 020550Z AUTO 28002KT 9999 OVC032/// 15/13 Q1022
 
LIPY - Ancona Falconara (12 m.)
Dati ricevuti: 02/10/2022 07:50
Qualche nuvola
Qualche nuvola
 Vento da S
Vento: S 6 km/h
TEMPERATURA: 13°C
P.to di Rugiada: 12°C
Umidità: 94%
Pressione: 1020 hPa
Nuvole: Qualche nuvola
Visibilità: 10 km
Dettagli Nuvole: Qualche nuvola 7620 m
2022/10/02 05:50 LIPY 020550Z AUTO 19003KT 9999 FEW250/// 13/12 Q1020
 
LIPR - Rimini Miramare (12 m.)
Dati ricevuti: 02/10/2022 07:50
Poco nuvoloso
Poco nuvoloso
 Vento da SSW
Vento: SSW 7 km/h
TEMPERATURA: 13°C
P.to di Rugiada: 12°C
Umidità: 94%
Pressione: 1020 hPa
Nuvole: Poco nuvoloso
Visibilità: 10 km
Dettagli Nuvole: Poco nuvoloso 7010 m
2022/10/02 05:50 LIPR 020550Z AUTO 20004KT 9999 SCT230/// 13/12 Q1020
 
LIRF - Roma Fiumicino (2 m.)
Dati ricevuti: 02/10/2022 07:50
Sereno
Sereno
 Vento da ESE
Vento: ESE 6 km/h
TEMPERATURA: 14°C
P.to di Rugiada: 12°C
Umidità: 88%
Pressione: 1022 hPa
Condizioni generali: Sereno
Visibilità: oltre 10 km
2022/10/02 05:50 LIRF 020550Z 12003KT CAVOK 14/12 Q1022 NOSIG
 
LIRA - Roma Ciampino (129 m.)
Dati ricevuti: 02/10/2022 07:50
Sereno
Sereno
 Vento da NE
Vento: NE 6 km/h
TEMPERATURA: 13°C
P.to di Rugiada: 11°C
Umidità: 88%
Pressione: 1022 hPa
Condizioni generali: Sereno
Visibilità: oltre 10 km
2022/10/02 05:50 LIRA 020550Z 04003KT 010V070 CAVOK 13/11 Q1022
 
LIRU - Roma Urbe (17 m.)
Dati ricevuti: 02/10/2022 08:00
Sereno
Sereno
 Vento da direzione variabile
Vento: direzione variabile 4 km/h
TEMPERATURA: 12°C
P.to di Rugiada: 11°C
Umidità: 94%
Pressione: 1023 hPa
Condizioni generali: Sereno
Visibilità: oltre 10 km
2022/10/02 06:00 LIRU 020600Z VRB02KT CAVOK 12/11 Q1023
 
LIVF - Frontone (570 m.)
Dati ricevuti: 02/10/2022 07:55
Qualche nuvola
Qualche nuvola
 Vento da SSW
Vento: SSW 11 km/h
TEMPERATURA: 16°C
P.to di Rugiada: 12°C
Umidità: 77%
Pressione: 1018 hPa
Nuvole: Qualche nuvola
Visibilità: 10 km
Dettagli Nuvole: Qualche nuvola 1524 m
2022/10/02 05:55 LIVF 020555Z 20006KT 9999 FEW050 16/12 Q1018
 
LIRQ - Firenze Peretola (40 m.)
Dati ricevuti: 02/10/2022 07:50
Molto nuvoloso
Molto nuvoloso
 Vento da ESE
Vento: ESE 6 km/h
TEMPERATURA: 18°C
P.to di Rugiada: 16°C
Umidità: 88%
Pressione: 1021 hPa
Nuvole: Molto nuvoloso
Visibilità: 10 km
Dettagli Nuvole: Qualche nuvola 762 m
Molto nuvoloso 1067 m
2022/10/02 05:50 LIRQ 020550Z 12003KT 9999 FEW025 BKN035 18/16 Q1021
 
LIBP - Pescara (10 m.)
Dati ricevuti: 02/10/2022 07:50
Sereno
Sereno
 Vento da SSW
Vento: SSW 7 km/h
TEMPERATURA: 11°C
P.to di Rugiada: 10°C
Umidità: 94%
Pressione: 1021 hPa
Nuvole: Sereno
Visibilità: 10 km
2022/10/02 05:50 LIBP 020550Z AUTO 21004KT 9999 NCD 11/10 Q1021
 
LIRV - Viterbo (300 m.)
Dati ricevuti: 02/10/2022 07:55
Sereno
Sereno
 Vento da NNE
Vento: NNE 11 km/h
TEMPERATURA: 12°C
P.to di Rugiada: 11°C
Umidità: 94%
Pressione: 1022 hPa
Condizioni generali: Sereno
Visibilità: oltre 10 km
2022/10/02 05:55 LIRV 020555Z 02006KT CAVOK 12/11 Q1022
 
LIQN - Rieti (389 m.)
Dati ricevuti: 01/10/2022 19:50
Dati non aggiornati
Qualche nuvola
Qualche nuvola
 Vento da N
Vento: N 7 km/h
TEMPERATURA: 17°C
P.to di Rugiada: 11°C
Umidità: 68%
Pressione: 1021 hPa
Nuvole: Qualche nuvola
Visibilità: 9 km
Dettagli Nuvole: Qualche nuvola 1067 m
2022/10/01 17:50 LIQN 011750Z 01004KT 280V090 9000 FEW035 17/11 Q1021
 
LIRG - Guidonia -RM- (88 m.)
Dati ricevuti: 30/09/2022 19:55
Dati non aggiornati
Poco nuvoloso
Poco nuvoloso
 Vento da SE
Vento: SE 13 km/h
TEMPERATURA: 20°C
P.to di Rugiada: 14°C
Umidità: 69%
Pressione: 1010 hPa
Nuvole: Poco nuvoloso
Visibilità: 10 km
Dettagli Nuvole: Poco nuvoloso 914 m
2022/09/30 17:55 LIRG 301755Z 14007KT 9999 SCT030 20/14 Q1010
 
LIRK - Terminillo -RI-(1874 m.)
Dati ricevuti: 02/10/2022 07:55

 Vento da NNW
Vento: NNW 28 km/h
TEMPERATURA: 10°C
Raffreddamento da Vento: 7°C
P.to di Rugiada: 4°C
Umidità: 67%
Pressione: 1017 hPa
2022/10/02 05:55 LIRK 020555Z AUTO 34015KT //// 10/04 Q1017
 
LIPK - Forlì (27 m.)
Dati ricevuti: 02/10/2022 07:50
Sereno
Sereno
 Vento da direzione variabile
Vento: direzione variabile 2 km/h
TEMPERATURA: 11°C
P.to di Rugiada: 9°C
Umidità: 88%
Pressione: 1020 hPa
Condizioni generali: Sereno
Visibilità: oltre 10 km
2022/10/02 05:50 LIPK 020550Z VRB01KT CAVOK 11/09 Q1020
 
LIRS - Grosseto (5 m.)
Dati ricevuti: 02/10/2022 07:55
Sereno
Sereno
 Vento da N
Vento: N 6 km/h
TEMPERATURA: 12°C
P.to di Rugiada: 10°C
Umidità: 88%
Pressione: 1022 hPa
Condizioni generali: Sereno
Visibilità: oltre 10 km
2022/10/02 05:55 LIRS 020555Z 36003KT CAVOK 12/10 Q1022
 
LIRP - Pisa S.Giusto (2 m.)
Dati ricevuti: 02/10/2022 07:45
Molto nuvoloso
Molto nuvoloso
 Vento da ESE
Vento: ESE 11 km/h
TEMPERATURA: 16°C
P.to di Rugiada: 14°C
Umidità: 88%
Pressione: 1022 hPa
Nuvole: Molto nuvoloso
Visibilità: 10 km
Dettagli Nuvole: Poco nuvoloso 914 m
Molto nuvoloso 1219 m
2022/10/02 05:45 LIRP 020545Z 12006KT 9999 SCT030 BKN040 16/14 Q1022 NOSIG